sensor_id;sensor_type;location;lat;lon;timestamp;pressure;altitude;pressure_sealevel;temperature;humidity
60059;BME280;45932;50.658;3.022;2022-09-12T00:01:44;101205.81;;;20.58;58.52
60059;BME280;45932;50.658;3.022;2022-09-12T00:04:10;101276.09;;;20.97;58.53
60059;BME280;45932;50.658;3.022;2022-09-12T00:06:36;101316.41;;;21.22;58.70
60059;BME280;45932;50.658;3.022;2022-09-12T00:09:09;101293.03;;;20.99;58.72
60059;BME280;45932;50.658;3.022;2022-09-12T00:11:37;101284.28;;;20.93;58.72
60059;BME280;45932;50.658;3.022;2022-09-12T00:14:03;101314.03;;;21.13;58.52
60059;BME280;45932;50.658;3.022;2022-09-12T00:16:33;101275.53;;;20.87;58.66
60059;BME280;45932;50.658;3.022;2022-09-12T00:19:29;101315.06;;;21.08;58.70
60059;BME280;45932;50.658;3.022;2022-09-12T00:21:55;101310.63;;;21.07;58.80
60059;BME280;45932;50.658;3.022;2022-09-12T00:24:21;101206.72;;;20.87;61.66
60059;BME280;45932;50.658;3.022;2022-09-12T00:26:46;101160.75;;;20.43;61.38
60059;BME280;45932;50.658;3.022;2022-09-12T00:29:19;101280.69;;;20.93;60.03
60059;BME280;45932;50.658;3.022;2022-09-12T00:31:45;101217.72;;;20.50;59.58
60059;BME280;45932;50.658;3.022;2022-09-12T00:34:11;101287.81;;;20.94;59.31
60059;BME280;45932;50.658;3.022;2022-09-12T00:36:38;101254.66;;;20.68;59.17
60059;BME280;45932;50.658;3.022;2022-09-12T00:39:06;101306.66;;;20.92;58.98
60059;BME280;45932;50.658;3.022;2022-09-12T00:41:37;101298.09;;;20.79;59.02
60059;BME280;45932;50.658;3.022;2022-09-12T00:46:58;101254.97;;;20.57;58.75
60059;BME280;45932;50.658;3.022;2022-09-12T00:49:28;101298.03;;;20.83;59.07
60059;BME280;45932;50.658;3.022;2022-09-12T00:52:17;101227.69;;;20.44;59.21
60059;BME280;45932;50.658;3.022;2022-09-12T00:54:48;101290.13;;;20.78;59.01
60059;BME280;45932;50.658;3.022;2022-09-12T00:57:15;101222.63;;;20.35;59.06
60059;BME280;45932;50.658;3.022;2022-09-12T00:59:48;101269.81;;;20.69;59.39
60059;BME280;45932;50.658;3.022;2022-09-12T01:02:14;101193.28;;;20.30;59.15
60059;BME280;45932;50.658;3.022;2022-09-12T01:04:41;101227.69;;;20.44;59.02
60059;BME280;45932;50.658;3.022;2022-09-12T01:07:07;101228.50;;;20.46;59.16
60059;BME280;45932;50.658;3.022;2022-09-12T01:09:33;101170.63;;;20.12;59.21
60059;BME280;45932;50.658;3.022;2022-09-12T01:12:00;101190.66;;;20.29;59.34
60059;BME280;45932;50.658;3.022;2022-09-12T01:14:26;101167.88;;;20.15;59.42
60059;BME280;45932;50.658;3.022;2022-09-12T01:16:52;101142.19;;;20.08;59.53
60059;BME280;45932;50.658;3.022;2022-09-12T01:31:00;101223.69;;;20.58;59.45
60059;BME280;45932;50.658;3.022;2022-09-12T01:33:41;101228.19;;;20.57;59.65
60059;BME280;45932;50.658;3.022;2022-09-12T01:41:42;101125.50;;;20.00;59.55
60059;BME280;45932;50.658;3.022;2022-09-12T01:47:12;101164.94;;;20.23;59.84
60059;BME280;45932;50.658;3.022;2022-09-12T01:52:17;101184.41;;;20.30;59.89
60059;BME280;45932;50.658;3.022;2022-09-12T01:54:49;101135.16;;;20.06;60.14
60059;BME280;45932;50.658;3.022;2022-09-12T01:57:21;101123.84;;;19.96;60.07
60059;BME280;45932;50.658;3.022;2022-09-12T01:59:53;101158.91;;;20.17;60.31
60059;BME280;45932;50.658;3.022;2022-09-12T02:02:28;101122.75;;;20.02;59.98
60059;BME280;45932;50.658;3.022;2022-09-12T02:05:00;101131.81;;;19.97;59.83
60059;BME280;45932;50.658;3.022;2022-09-12T02:07:32;101052.84;;;19.52;60.13
60059;BME280;45932;50.658;3.022;2022-09-12T02:10:15;101122.91;;;19.97;59.68
60059;BME280;45932;50.658;3.022;2022-09-12T02:12:53;101146.63;;;20.09;59.98
60059;BME280;45932;50.658;3.022;2022-09-12T02:15:24;101106.44;;;19.79;59.97
60059;BME280;45932;50.658;3.022;2022-09-12T02:17:54;101201.84;;;20.42;59.84
60059;BME280;45932;50.658;3.022;2022-09-12T02:20:29;101155.41;;;20.14;59.84
60059;BME280;45932;50.658;3.022;2022-09-12T02:22:59;101193.88;;;20.40;59.84
60059;BME280;45932;50.658;3.022;2022-09-12T02:25:26;101161.41;;;20.23;60.13
60059;BME280;45932;50.658;3.022;2022-09-12T02:30:23;101130.78;;;20.02;59.99
60059;BME280;45932;50.658;3.022;2022-09-12T02:33:06;101099.97;;;19.88;59.87
60059;BME280;45932;50.658;3.022;2022-09-12T02:36:13;101101.72;;;19.89;60.03
60059;BME280;45932;50.658;3.022;2022-09-12T02:38:43;101125.41;;;20.03;60.03
60059;BME280;45932;50.658;3.022;2022-09-12T02:41:13;101062.38;;;19.61;59.88
60059;BME280;45932;50.658;3.022;2022-09-12T02:43:39;101136.94;;;20.05;59.78
60059;BME280;45932;50.658;3.022;2022-09-12T02:46:14;101136.00;;;20.06;59.94
60059;BME280;45932;50.658;3.022;2022-09-12T02:48:42;101113.22;;;19.93;59.87
60059;BME280;45932;50.658;3.022;2022-09-12T02:51:08;101120.38;;;19.92;60.11
60059;BME280;45932;50.658;3.022;2022-09-12T02:53:35;101066.22;;;19.52;60.09
60059;BME280;45932;50.658;3.022;2022-09-12T02:56:00;101109.91;;;19.83;60.23
60059;BME280;45932;50.658;3.022;2022-09-12T02:58:28;101107.19;;;19.86;60.30
60059;BME280;45932;50.658;3.022;2022-09-12T03:01:28;101071.00;;;19.71;60.21
60059;BME280;45932;50.658;3.022;2022-09-12T03:06:47;101122.38;;;20.14;61.37
60059;BME280;45932;50.658;3.022;2022-09-12T03:18:09;101171.19;;;20.24;60.65
60059;BME280;45932;50.658;3.022;2022-09-12T03:23:09;101061.75;;;19.53;60.48
60059;BME280;45932;50.658;3.022;2022-09-12T03:25:48;101023.97;;;19.34;60.29
60059;BME280;45932;50.658;3.022;2022-09-12T03:28:15;101101.84;;;19.84;60.50
60059;BME280;45932;50.658;3.022;2022-09-12T03:30:44;101126.66;;;19.91;60.34
60059;BME280;45932;50.658;3.022;2022-09-12T03:33:11;101168.69;;;20.18;60.19
60059;BME280;45932;50.658;3.022;2022-09-12T03:35:37;101100.50;;;19.70;60.34
60059;BME280;45932;50.658;3.022;2022-09-12T03:38:03;101077.72;;;19.56;60.33
60059;BME280;45932;50.658;3.022;2022-09-12T03:40:29;101062.81;;;19.47;60.38
60059;BME280;45932;50.658;3.022;2022-09-12T03:42:54;101120.50;;;19.88;60.13
60059;BME280;45932;50.658;3.022;2022-09-12T03:45:19;101062.69;;;19.50;60.48
60059;BME280;45932;50.658;3.022;2022-09-12T03:47:45;101151.47;;;19.96;60.17
60059;BME280;45932;50.658;3.022;2022-09-12T03:50:10;101070.84;;;19.47;60.46
60059;BME280;45932;50.658;3.022;2022-09-12T03:52:36;101129.56;;;19.83;60.33
60059;BME280;45932;50.658;3.022;2022-09-12T03:55:01;101052.53;;;19.33;60.43
60059;BME280;45932;50.658;3.022;2022-09-12T03:57:27;101075.22;;;19.50;60.32
60059;BME280;45932;50.658;3.022;2022-09-12T03:59:52;101066.41;;;19.46;60.26
60059;BME280;45932;50.658;3.022;2022-09-12T04:02:17;101091.03;;;19.58;60.65
60059;BME280;45932;50.658;3.022;2022-09-12T04:04:43;101163.91;;;19.99;60.70
60059;BME280;45932;50.658;3.022;2022-09-12T04:07:09;101163.09;;;19.97;60.59
60059;BME280;45932;50.658;3.022;2022-09-12T04:09:35;101053.47;;;19.31;60.20
60059;BME280;45932;50.658;3.022;2022-09-12T04:12:00;101089.47;;;19.50;60.38
60059;BME280;45932;50.658;3.022;2022-09-12T04:14:26;101106.13;;;19.60;60.37
60059;BME280;45932;50.658;3.022;2022-09-12T04:16:51;101081.47;;;19.49;60.22
60059;BME280;45932;50.658;3.022;2022-09-12T04:19:16;101076.06;;;19.50;60.29
60059;BME280;45932;50.658;3.022;2022-09-12T04:21:42;101094.66;;;19.57;60.51
60059;BME280;45932;50.658;3.022;2022-09-12T04:24:07;101058.00;;;19.29;60.51
60059;BME280;45932;50.658;3.022;2022-09-12T04:26:32;101054.53;;;19.25;60.55
60059;BME280;45932;50.658;3.022;2022-09-12T04:28:59;101149.13;;;19.86;60.83
60059;BME280;45932;50.658;3.022;2022-09-12T04:31:24;101156.34;;;19.83;60.77
60059;BME280;45932;50.658;3.022;2022-09-12T04:33:59;101143.91;;;19.79;60.61
60059;BME280;45932;50.658;3.022;2022-09-12T04:36:26;101145.75;;;19.77;60.75
60059;BME280;45932;50.658;3.022;2022-09-12T04:38:52;101125.63;;;19.65;60.91
60059;BME280;45932;50.658;3.022;2022-09-12T04:41:20;101043.59;;;19.03;60.46
60059;BME280;45932;50.658;3.022;2022-09-12T04:43:50;101051.28;;;19.14;60.31
60059;BME280;45932;50.658;3.022;2022-09-12T04:46:16;101130.19;;;19.62;61.17
60059;BME280;45932;50.658;3.022;2022-09-12T04:48:43;101050.41;;;19.13;61.14
60059;BME280;45932;50.658;3.022;2022-09-12T04:51:16;101072.31;;;19.28;61.19
60059;BME280;45932;50.658;3.022;2022-09-12T04:53:46;101103.84;;;19.46;61.14
60059;BME280;45932;50.658;3.022;2022-09-12T04:56:12;101088.97;;;19.38;60.72
60059;BME280;45932;50.658;3.022;2022-09-12T04:58:37;101105.63;;;19.47;60.89
60059;BME280;45932;50.658;3.022;2022-09-12T05:01:04;101130.06;;;19.65;61.19
60059;BME280;45932;50.658;3.022;2022-09-12T05:03:30;101032.72;;;19.09;61.42
60059;BME280;45932;50.658;3.022;2022-09-12T05:05:56;100989.59;;;18.88;62.55
60059;BME280;45932;50.658;3.022;2022-09-12T05:08:21;101001.28;;;18.86;61.57
60059;BME280;45932;50.658;3.022;2022-09-12T05:10:46;101034.78;;;18.99;61.00
60059;BME280;45932;50.658;3.022;2022-09-12T05:13:12;101022.66;;;18.84;60.58
60059;BME280;45932;50.658;3.022;2022-09-12T05:15:37;101073.41;;;19.20;60.77
60059;BME280;45932;50.658;3.022;2022-09-12T05:18:04;101038.69;;;18.84;60.72
60059;BME280;45932;50.658;3.022;2022-09-12T05:20:29;100986.78;;;18.62;60.29
60059;BME280;45932;50.658;3.022;2022-09-12T05:22:55;101068.66;;;18.99;60.35
60059;BME280;45932;50.658;3.022;2022-09-12T05:25:20;101115.25;;;19.22;60.38
60059;BME280;45932;50.658;3.022;2022-09-12T05:27:45;101090.66;;;19.09;60.28
60059;BME280;45932;50.658;3.022;2022-09-12T05:30:11;101077.50;;;19.01;60.53
60059;BME280;45932;50.658;3.022;2022-09-12T05:32:36;101118.81;;;19.22;60.64
60059;BME280;45932;50.658;3.022;2022-09-12T05:35:01;101053.94;;;18.82;60.50
60059;BME280;45932;50.658;3.022;2022-09-12T05:37:27;101082.00;;;18.99;60.78
60059;BME280;45932;50.658;3.022;2022-09-12T05:39:53;101088.03;;;19.07;60.59
60059;BME280;45932;50.658;3.022;2022-09-12T05:42:18;101041.72;;;18.72;60.40
60059;BME280;45932;50.658;3.022;2022-09-12T05:44:44;101063.81;;;18.79;60.39
60059;BME280;45932;50.658;3.022;2022-09-12T05:47:11;101152.25;;;19.37;60.60
60059;BME280;45932;50.658;3.022;2022-09-12T05:49:37;101115.50;;;19.12;60.70
60059;BME280;45932;50.658;3.022;2022-09-12T05:52:02;101060.31;;;18.77;60.60
60059;BME280;45932;50.658;3.022;2022-09-12T05:54:28;101033.28;;;18.54;60.47
60059;BME280;45932;50.658;3.022;2022-09-12T05:56:53;101052.56;;;18.66;60.55
60059;BME280;45932;50.658;3.022;2022-09-12T05:59:20;101157.75;;;19.32;60.93
60059;BME280;45932;50.658;3.022;2022-09-12T06:01:45;101063.72;;;18.82;60.99
60059;BME280;45932;50.658;3.022;2022-09-12T06:04:11;101140.16;;;19.24;61.18
60059;BME280;45932;50.658;3.022;2022-09-12T06:06:39;101138.31;;;19.26;61.16
60059;BME280;45932;50.658;3.022;2022-09-12T06:09:06;101133.88;;;19.25;61.47
60059;BME280;45932;50.658;3.022;2022-09-12T06:11:33;101130.41;;;19.23;61.71
60059;BME280;45932;50.658;3.022;2022-09-12T06:13:59;101064.72;;;18.78;61.35
60059;BME280;45932;50.658;3.022;2022-09-12T06:16:27;101051.44;;;18.76;61.93
60059;BME280;45932;50.658;3.022;2022-09-12T06:18:55;101136.50;;;19.28;61.80
60059;BME280;45932;50.658;3.022;2022-09-12T06:21:22;101107.28;;;19.20;61.87
60059;BME280;45932;50.658;3.022;2022-09-12T06:23:48;101014.50;;;18.58;61.79
60059;BME280;45932;50.658;3.022;2022-09-12T06:26:15;101125.50;;;19.37;61.61
60059;BME280;45932;50.658;3.022;2022-09-12T06:28:43;101137.00;;;19.41;61.59
60059;BME280;45932;50.658;3.022;2022-09-12T06:31:21;100995.72;;;18.61;61.57
60059;BME280;45932;50.658;3.022;2022-09-12T06:33:49;101131.63;;;19.42;62.13
60059;BME280;45932;50.658;3.022;2022-09-12T06:36:17;101078.06;;;19.12;62.00
60059;BME280;45932;50.658;3.022;2022-09-12T06:38:43;101126.28;;;19.42;61.81
60059;BME280;45932;50.658;3.022;2022-09-12T06:41:13;101074.66;;;19.07;61.46
60059;BME280;45932;50.658;3.022;2022-09-12T06:43:40;101095.53;;;19.26;61.27
60059;BME280;45932;50.658;3.022;2022-09-12T06:46:06;101145.75;;;19.47;61.08
60059;BME280;45932;50.658;3.022;2022-09-12T06:48:32;101047.25;;;18.99;61.40
60059;BME280;45932;50.658;3.022;2022-09-12T06:50:59;101078.56;;;19.27;61.17
60059;BME280;45932;50.658;3.022;2022-09-12T06:53:25;101050.47;;;19.12;61.55
60059;BME280;45932;50.658;3.022;2022-09-12T06:55:59;101122.22;;;19.59;60.89
60059;BME280;45932;50.658;3.022;2022-09-12T06:58:26;101046.91;;;19.11;61.29
60059;BME280;45932;50.658;3.022;2022-09-12T07:00:52;101011.00;;;18.87;61.01
60059;BME280;45932;50.658;3.022;2022-09-12T07:03:17;101078.56;;;19.27;61.10
60059;BME280;45932;50.658;3.022;2022-09-12T07:05:45;101147.84;;;19.67;60.62
60059;BME280;45932;50.658;3.022;2022-09-12T07:08:10;101135.34;;;19.68;60.79
60059;BME280;45932;50.658;3.022;2022-09-12T07:10:35;101037.06;;;19.13;60.89
60059;BME280;45932;50.658;3.022;2022-09-12T07:13:01;101091.22;;;19.51;60.73
60059;BME280;45932;50.658;3.022;2022-09-12T07:15:26;101062.28;;;19.34;60.72
60059;BME280;45932;50.658;3.022;2022-09-12T07:17:51;101060.69;;;19.29;60.31
60059;BME280;45932;50.658;3.022;2022-09-12T07:20:17;101074.56;;;19.42;59.91
60059;BME280;45932;50.658;3.022;2022-09-12T07:22:42;101086.97;;;19.44;59.86
60059;BME280;45932;50.658;3.022;2022-09-12T07:25:07;101040.47;;;19.18;59.69
60059;BME280;45932;50.658;3.022;2022-09-12T07:27:33;101098.25;;;19.56;59.91
60059;BME280;45932;50.658;3.022;2022-09-12T07:29:58;101089.47;;;19.50;59.39
60059;BME280;45932;50.658;3.022;2022-09-12T07:32:24;101167.69;;;19.92;59.31
60059;BME280;45932;50.658;3.022;2022-09-12T07:34:50;101151.81;;;19.86;59.22
60059;BME280;45932;50.658;3.022;2022-09-12T07:37:16;101092.97;;;19.52;59.20
60059;BME280;45932;50.658;3.022;2022-09-12T07:39:41;101018.41;;;19.10;59.18
60059;BME280;45932;50.658;3.022;2022-09-12T07:42:07;101120.94;;;19.72;59.31
60059;BME280;45932;50.658;3.022;2022-09-12T07:44:32;101157.72;;;19.97;59.20
60059;BME280;45932;50.658;3.022;2022-09-12T07:46:57;101140.09;;;19.90;59.22
60059;BME280;45932;50.658;3.022;2022-09-12T07:49:23;101099.63;;;19.69;58.94
60059;BME280;45932;50.658;3.022;2022-09-12T07:51:48;101124.34;;;19.77;58.93
60059;BME280;45932;50.658;3.022;2022-09-12T07:54:14;101127.88;;;19.79;58.81
60059;BME280;45932;50.658;3.022;2022-09-12T07:56:39;101169.81;;;20.10;58.84
60059;BME280;45932;50.658;3.022;2022-09-12T07:59:06;101197.97;;;20.24;58.74
60059;BME280;45932;50.658;3.022;2022-09-12T08:01:31;101124.75;;;19.95;59.03
60059;BME280;45932;50.658;3.022;2022-09-12T08:03:58;101072.69;;;19.75;58.98
60059;BME280;45932;50.658;3.022;2022-09-12T08:06:25;101071.66;;;19.79;59.25
60059;BME280;45932;50.658;3.022;2022-09-12T08:08:53;101097.16;;;19.93;58.96
60059;BME280;45932;50.658;3.022;2022-09-12T08:11:20;101125.25;;;20.08;58.58
60059;BME280;45932;50.658;3.022;2022-09-12T08:13:47;101087.41;;;19.90;58.58
60059;BME280;45932;50.658;3.022;2022-09-12T08:16:18;101131.16;;;20.19;58.34
60059;BME280;45932;50.658;3.022;2022-09-12T08:18:45;101185.38;;;20.54;58.26
60059;BME280;45932;50.658;3.022;2022-09-12T08:23:37;101155.59;;;20.37;58.13
60059;BME280;45932;50.658;3.022;2022-09-12T08:26:04;101123.91;;;20.21;58.46
60059;BME280;45932;50.658;3.022;2022-09-12T08:28:31;101187.72;;;20.65;58.51
60059;BME280;45932;50.658;3.022;2022-09-12T08:31:04;101146.44;;;20.44;58.34
60059;BME280;45932;50.658;3.022;2022-09-12T08:33:31;101120.13;;;20.28;57.89
60059;BME280;45932;50.658;3.022;2022-09-12T08:38:29;101095.03;;;20.31;58.50
60059;BME280;45932;50.658;3.022;2022-09-12T08:58:06;101133.00;;;21.24;58.50
60059;BME280;45932;50.658;3.022;2022-09-12T09:05:57;101168.31;;;21.86;57.44
60059;BME280;45932;50.658;3.022;2022-09-12T09:11:20;101179.13;;;22.31;56.42
60059;BME280;45932;50.658;3.022;2022-09-12T09:16:49;101201.47;;;22.77;55.49
60059;BME280;45932;50.658;3.022;2022-09-12T09:19:27;101133.16;;;22.61;55.30
60059;BME280;45932;50.658;3.022;2022-09-12T09:24:26;101150.19;;;23.02;54.85
60059;BME280;45932;50.658;3.022;2022-09-12T09:27:04;101187.81;;;23.45;54.72
60059;BME280;45932;50.658;3.022;2022-09-12T09:29:48;101114.50;;;23.20;54.12
60059;BME280;45932;50.658;3.022;2022-09-12T09:32:33;101138.44;;;23.65;54.31
60059;BME280;45932;50.658;3.022;2022-09-12T09:38:17;101225.56;;;24.42;51.78
60059;BME280;45932;50.658;3.022;2022-09-12T09:43:33;101186.34;;;24.54;51.60
60059;BME280;45932;50.658;3.022;2022-09-12T09:45:58;101130.97;;;24.47;52.33
60059;BME280;45932;50.658;3.022;2022-09-12T09:48:30;101214.22;;;25.09;50.90
60059;BME280;45932;50.658;3.022;2022-09-12T09:50:58;101155.31;;;25.17;52.91
60059;BME280;45932;50.658;3.022;2022-09-12T09:55:50;101148.97;;;25.18;49.42
60059;BME280;45932;50.658;3.022;2022-09-12T09:58:31;101206.91;;;25.64;49.19
60059;BME280;45932;50.658;3.022;2022-09-12T10:00:58;101227.81;;;25.94;48.68
60059;BME280;45932;50.658;3.022;2022-09-12T10:03:29;101180.38;;;25.88;48.26
60059;BME280;45932;50.658;3.022;2022-09-12T10:06:06;101192.47;;;26.14;48.72
60059;BME280;45932;50.658;3.022;2022-09-12T10:08:34;101175.72;;;26.24;48.96
60059;BME280;45932;50.658;3.022;2022-09-12T10:11:17;101244.97;;;26.74;47.65
60059;BME280;45932;50.658;3.022;2022-09-12T10:16:33;101234.47;;;27.00;48.18
60059;BME280;45932;50.658;3.022;2022-09-12T10:19:02;101240.19;;;27.10;46.86
60059;BME280;45932;50.658;3.022;2022-09-12T10:21:35;101252.25;;;27.20;46.00
60059;BME280;45932;50.658;3.022;2022-09-12T10:26:49;101200.22;;;27.15;45.40
60059;BME280;45932;50.658;3.022;2022-09-12T10:29:24;101250.22;;;27.54;45.21
60059;BME280;45932;50.658;3.022;2022-09-12T10:31:53;101217.03;;;27.51;46.22
60059;BME280;45932;50.658;3.022;2022-09-12T10:34:41;101242.69;;;27.74;45.83
60059;BME280;45932;50.658;3.022;2022-09-12T10:37:15;101222.84;;;27.59;43.27
60059;BME280;45932;50.658;3.022;2022-09-12T10:39:49;101243.97;;;27.83;43.51
60059;BME280;45932;50.658;3.022;2022-09-12T10:42:50;101236.22;;;27.91;44.94
60059;BME280;45932;50.658;3.022;2022-09-12T10:45:35;101199.72;;;27.82;45.73
60059;BME280;45932;50.658;3.022;2022-09-12T10:48:48;101212.00;;;28.02;47.54
60059;BME280;45932;50.658;3.022;2022-09-12T10:50:48;101223.81;;;28.16;46.75
60059;BME280;45932;50.658;3.022;2022-09-12T10:55:46;101230.69;;;28.36;45.62
60059;BME280;45932;50.658;3.022;2022-09-12T11:01:08;101190.13;;;28.20;44.30
60059;BME280;45932;50.658;3.022;2022-09-12T11:06:23;101181.78;;;28.23;41.56
60059;BME280;45932;50.658;3.022;2022-09-12T11:09:08;101229.34;;;28.70;45.36
60059;BME280;45932;50.658;3.022;2022-09-12T11:25:43;101241.84;;;29.00;40.68
60059;BME280;45932;50.658;3.022;2022-09-12T11:28:37;101181.66;;;28.66;41.03
60059;BME280;45932;50.658;3.022;2022-09-12T11:31:30;101170.78;;;28.66;43.45
60059;BME280;45932;50.658;3.022;2022-09-12T11:34:07;101231.31;;;29.08;40.96
60059;BME280;45932;50.658;3.022;2022-09-12T11:39:37;101240.56;;;29.19;40.52
60059;BME280;45932;50.658;3.022;2022-09-12T11:42:04;101168.25;;;28.78;39.63
60059;BME280;45932;50.658;3.022;2022-09-12T11:44:39;101142.59;;;28.69;39.81
60059;BME280;45932;50.658;3.022;2022-09-12T11:47:10;101232.97;;;29.24;39.95
60059;BME280;45932;50.658;3.022;2022-09-12T11:49:44;101102.47;;;28.59;41.64
60059;BME280;45932;50.658;3.022;2022-09-12T11:52:15;101222.16;;;29.37;39.72
60059;BME280;45932;50.658;3.022;2022-09-12T11:54:51;101217.91;;;29.33;40.60
60059;BME280;45932;50.658;3.022;2022-09-12T11:57:29;101210.63;;;29.33;41.17
60059;BME280;45932;50.658;3.022;2022-09-12T12:02:49;101148.63;;;29.00;39.15
60059;BME280;45932;50.658;3.022;2022-09-12T12:08:03;101136.91;;;28.99;42.92
60059;BME280;45932;50.658;3.022;2022-09-12T12:12:57;101151.44;;;29.11;41.12
60059;BME280;45932;50.658;3.022;2022-09-12T12:15:26;101106.78;;;29.02;42.00
60059;BME280;45932;50.658;3.022;2022-09-12T12:18:07;101174.31;;;29.47;39.88
60059;BME280;45932;50.658;3.022;2022-09-12T12:20:40;101114.06;;;29.15;39.94
60059;BME280;45932;50.658;3.022;2022-09-12T12:23:05;101089.31;;;29.06;39.25
60059;BME280;45932;50.658;3.022;2022-09-12T12:25:39;101170.41;;;29.51;39.86
60059;BME280;45932;50.658;3.022;2022-09-12T12:28:05;101123.66;;;29.20;39.80
60059;BME280;45932;50.658;3.022;2022-09-12T12:33:06;101161.91;;;29.56;43.20
60059;BME280;45932;50.658;3.022;2022-09-12T12:38:38;101080.53;;;29.03;42.22
60059;BME280;45932;50.658;3.022;2022-09-12T12:43:49;101127.13;;;29.10;39.53
60059;BME280;45932;50.658;3.022;2022-09-12T12:46:25;101139.50;;;29.14;40.55
60059;BME280;45932;50.658;3.022;2022-09-12T12:51:58;101180.88;;;29.17;39.10
60059;BME280;45932;50.658;3.022;2022-09-12T12:54:53;101149.59;;;28.99;39.43
60059;BME280;45932;50.658;3.022;2022-09-12T12:57:40;101169.06;;;29.05;42.24
60059;BME280;45932;50.658;3.022;2022-09-12T13:05:37;101164.25;;;28.96;40.45
60059;BME280;45932;50.658;3.022;2022-09-12T13:08:09;101159.25;;;28.90;41.07
60059;BME280;45932;50.658;3.022;2022-09-12T13:10:35;101103.66;;;28.55;40.74
60059;BME280;45932;50.658;3.022;2022-09-12T13:13:03;101164.69;;;28.90;41.09
60059;BME280;45932;50.658;3.022;2022-09-12T13:18:26;101161.19;;;28.75;41.54
60059;BME280;45932;50.658;3.022;2022-09-12T13:21:12;101159.88;;;28.81;43.10
60059;BME280;45932;50.658;3.022;2022-09-12T13:23:38;101139.38;;;28.62;39.72
60059;BME280;45932;50.658;3.022;2022-09-12T13:26:10;101165.72;;;28.74;39.94
60059;BME280;45932;50.658;3.022;2022-09-12T13:28:36;101142.41;;;28.57;40.63
60059;BME280;45932;50.658;3.022;2022-09-12T13:33:41;101165.06;;;28.71;40.13
60059;BME280;45932;50.658;3.022;2022-09-12T13:36:22;101163.50;;;28.67;40.77
60059;BME280;45932;50.658;3.022;2022-09-12T13:42:06;101147.94;;;28.56;39.33
60059;BME280;45932;50.658;3.022;2022-09-12T13:44:48;101106.38;;;28.28;40.48
60059;BME280;45932;50.658;3.022;2022-09-12T13:47:22;101047.28;;;27.91;40.40
60059;BME280;45932;50.658;3.022;2022-09-12T13:49:50;101082.25;;;28.10;38.86
60059;BME280;45932;50.658;3.022;2022-09-12T13:52:21;101069.66;;;28.09;38.88
60059;BME280;45932;50.658;3.022;2022-09-12T13:54:53;101093.13;;;28.23;39.51
60059;BME280;45932;50.658;3.022;2022-09-12T13:57:28;101135.19;;;28.43;39.20
60059;BME280;45932;50.658;3.022;2022-09-12T13:59:55;101089.00;;;28.18;39.03
60059;BME280;45932;50.658;3.022;2022-09-12T14:02:23;101096.91;;;28.21;39.53
60059;BME280;45932;50.658;3.022;2022-09-12T14:04:51;101124.53;;;28.40;39.76
60059;BME280;45932;50.658;3.022;2022-09-12T14:07:46;101025.34;;;27.82;40.83
60059;BME280;45932;50.658;3.022;2022-09-12T14:10:27;101058.22;;;28.04;40.84
60059;BME280;45932;50.658;3.022;2022-09-12T14:12:55;101047.28;;;27.91;39.26
60059;BME280;45932;50.658;3.022;2022-09-12T14:15:27;101045.78;;;27.87;40.53
60059;BME280;45932;50.658;3.022;2022-09-12T14:17:57;101048.19;;;27.92;40.30
60059;BME280;45932;50.658;3.022;2022-09-12T14:20:25;101069.88;;;28.06;39.67
60059;BME280;45932;50.658;3.022;2022-09-12T14:23:00;101073.53;;;28.05;40.62
60059;BME280;45932;50.658;3.022;2022-09-12T14:25:27;101103.66;;;28.28;39.67
60059;BME280;45932;50.658;3.022;2022-09-12T14:27:56;101073.03;;;28.13;38.88
60059;BME280;45932;50.658;3.022;2022-09-12T14:33:16;101017.47;;;27.91;38.77
60059;BME280;45932;50.658;3.022;2022-09-12T14:35:44;101086.31;;;28.31;39.66
60059;BME280;45932;50.658;3.022;2022-09-12T14:40:44;101004.44;;;27.84;39.75
60059;BME280;45932;50.658;3.022;2022-09-12T14:43:20;101050.88;;;28.06;39.36
60059;BME280;45932;50.658;3.022;2022-09-12T14:45:56;101038.06;;;28.08;38.64
60059;BME280;45932;50.658;3.022;2022-09-12T14:48:24;100986.72;;;27.78;38.50
60059;BME280;45932;50.658;3.022;2022-09-12T14:50:52;100993.50;;;27.85;36.89
60059;BME280;45932;50.658;3.022;2022-09-12T14:55:51;101038.56;;;28.28;37.53
60059;BME280;45932;50.658;3.022;2022-09-12T15:08:53;100978.91;;;27.73;38.50
60059;BME280;45932;50.658;3.022;2022-09-12T15:11:19;101016.63;;;27.91;37.94
60059;BME280;45932;50.658;3.022;2022-09-12T15:13:44;100919.78;;;27.38;37.77
60059;BME280;45932;50.658;3.022;2022-09-12T15:16:10;101027.88;;;28.12;37.48
60059;BME280;45932;50.658;3.022;2022-09-12T15:18:36;101031.47;;;28.13;36.77
60059;BME280;45932;50.658;3.022;2022-09-12T15:21:04;100987.94;;;27.87;37.19
60059;BME280;45932;50.658;3.022;2022-09-12T15:26:05;101001.19;;;28.06;38.29
60059;BME280;45932;50.658;3.022;2022-09-12T15:28:31;100996.91;;;28.02;37.35
60059;BME280;45932;50.658;3.022;2022-09-12T15:31:01;100993.53;;;27.98;39.61
60059;BME280;45932;50.658;3.022;2022-09-12T15:33:28;100952.56;;;27.75;37.76
60059;BME280;45932;50.658;3.022;2022-09-12T15:35:53;100923.34;;;27.53;37.76
60059;BME280;45932;50.658;3.022;2022-09-12T15:38:19;100859.81;;;27.30;37.35
60059;BME280;45932;50.658;3.022;2022-09-12T15:40:48;100904.66;;;27.48;37.26
60059;BME280;45932;50.658;3.022;2022-09-12T15:43:16;100939.81;;;27.77;37.60
60059;BME280;45932;50.658;3.022;2022-09-12T15:45:43;100905.69;;;27.60;37.57
60059;BME280;45932;50.658;3.022;2022-09-12T15:48:08;100996.88;;;28.16;38.16
60059;BME280;45932;50.658;3.022;2022-09-12T15:50:34;100900.59;;;27.56;38.87
60059;BME280;45932;50.658;3.022;2022-09-12T15:53:00;100923.00;;;27.72;38.58
60059;BME280;45932;50.658;3.022;2022-09-12T15:55:30;100883.22;;;27.45;39.26